Time;durP1;ratioP1;P1;durP2;ratioP2;P2;SDS_P1;SDS_P2;PMS_P1;PMS_P2;Temp;Humidity;BMP_temperature;BMP_pressure;BME280_temperature;BME280_humidity;BME280_pressure;Samples;Min_cycle;Max_cycle;Signal;HPM_P1;HPM_P2
2023/04/27 00:04:16;;;;;;;;;;;;;;;8.67;100.00;97775.97;18546490;32;20261;-57
2023/04/27 00:14:19;;;;;;;;;;;;;;;8.75;100.00;97780.91;18560986;32;19972;-57
2023/04/27 00:24:22;;;;;;;;;;;;;;;8.77;100.00;97776.09;18572395;31;20365;-57
2023/04/27 00:34:24;;;;;;;;;;;;;;;8.76;100.00;97773.66;18572158;32;19968;-57
2023/04/27 00:44:27;;;;;;;;;;;;;;;8.77;100.00;97776.09;18572037;32;20001;-57
2023/04/27 00:54:29;;;;;;;;;;;;;;;8.79;100.00;97773.94;18571515;32;19944;-57
2023/04/27 01:04:31;;;;;;;;;;;;;;;8.84;100.00;97775.06;18570800;32;19988;-57
2023/04/27 01:14:35;;;;;;;;;;;;;;;8.85;100.00;97774.78;18570176;32;19963;-57
2023/04/27 01:24:37;;;;;;;;;;;;;;;8.85;100.00;97764.00;18569428;32;19975;-57
2023/04/27 01:34:39;;;;;;;;;;;;;;;8.81;100.00;97766.41;18553824;32;20295;-57
2023/04/27 01:44:41;;;;;;;;;;;;;;;8.81;100.00;97782.59;18568505;32;19980;-57
2023/04/27 01:54:44;;;;;;;;;;;;;;;8.81;100.00;97776.37;18567798;32;20334;-57
2023/04/27 02:04:46;;;;;;;;;;;;;;;8.84;100.00;97775.87;18567156;32;20264;-57
2023/04/27 02:14:48;;;;;;;;;;;;;;;8.81;100.00;97784.47;18551431;31;19944;-57
2023/04/27 02:24:50;;;;;;;;;;;;;;;8.81;100.00;97781.75;18565934;32;20003;-58
2023/04/27 02:34:52;;;;;;;;;;;;;;;8.76;100.00;97771.75;18565299;32;19957;-58
2023/04/27 02:44:55;;;;;;;;;;;;;;;8.53;100.00;97769.38;18550509;32;20261;-58
2023/04/27 02:54:57;;;;;;;;;;;;;;;8.39;100.00;97769.75;18550091;32;20307;-57
2023/04/27 03:05:00;;;;;;;;;;;;;;;8.40;100.00;97766.00;18563459;31;20360;-57
2023/04/27 03:15:05;;;;;;;;;;;;;;;8.39;100.00;97771.62;18563076;32;19987;-57
2023/04/27 03:25:08;;;;;;;;;;;;;;;8.41;100.00;97759.50;18562708;32;19967;-57
2023/04/27 03:35:11;;;;;;;;;;;;;;;8.39;100.00;97764.34;18545759;32;19960;-57
2023/04/27 03:45:13;;;;;;;;;;;;;;;8.37;100.00;97771.88;18561626;32;19945;-57
2023/04/27 03:55:15;;;;;;;;;;;;;;;8.36;100.00;97775.66;18560685;32;19956;-57
2023/04/27 04:05:17;;;;;;;;;;;;;;;8.36;100.00;97774.81;18561158;32;19959;-57
2023/04/27 04:15:20;;;;;;;;;;;;;;;8.32;100.00;97778.03;18560529;32;19960;-57
2023/04/27 04:25:24;;;;;;;;;;;;;;;8.27;100.00;97793.31;18546053;32;20011;-58
2023/04/27 04:35:27;;;;;;;;;;;;;;;8.32;100.00;97783.41;18559714;32;19960;-58
2023/04/27 04:45:29;;;;;;;;;;;;;;;8.34;100.00;97791.25;18559864;32;19944;-58
2023/04/27 04:55:31;;;;;;;;;;;;;;;8.37;100.00;97779.94;18559315;31;20367;-57
2023/04/27 05:05:33;;;;;;;;;;;;;;;8.47;100.00;97796.28;18563320;32;19948;-58
2023/04/27 05:15:36;;;;;;;;;;;;;;;8.59;100.00;97811.47;18542937;32;19976;-57
2023/04/27 05:25:41;;;;;;;;;;;;;;;8.77;100.00;97805.75;18570139;32;19967;-57
2023/04/27 05:35:43;;;;;;;;;;;;;;;9.00;100.00;97814.56;18568926;32;20000;-57
2023/04/27 05:45:46;;;;;;;;;;;;;;;9.28;100.00;97823.47;18568289;32;19945;-57
2023/04/27 05:55:48;;;;;;;;;;;;;;;9.67;100.00;97825.88;18567570;32;19964;-57
2023/04/27 06:05:58;;;;;;;;;;;;;;;10.22;100.00;97831.03;18553395;32;19949;-57
2023/04/27 06:16:00;;;;;;;;;;;;;;;10.55;100.00;97842.53;18566045;32;19963;-57
2023/04/27 06:26:03;;;;;;;;;;;;;;;10.92;100.00;97846.97;18566098;32;19975;-58
2023/04/27 06:36:07;;;;;;;;;;;;;;;11.25;100.00;97858.38;18550866;32;19991;-58
2023/04/27 06:46:13;;;;;;;;;;;;;;;11.31;100.00;97873.56;18564522;31;19965;-58
2023/04/27 06:56:16;;;;;;;;;;;;;;;11.50;100.00;97866.50;18564103;32;19949;-57
2023/04/27 07:06:18;;;;;;;;;;;;;;;11.92;100.00;97874.59;18563964;32;19967;-57
2023/04/27 07:16:20;;;;;;;;;;;;;;;12.47;100.00;97872.88;18562940;32;20373;-58
2023/04/27 07:26:23;;;;;;;;;;;;;;;12.65;100.00;97876.06;18562023;32;20033;-58
2023/04/27 07:36:26;;;;;;;;;;;;;;;12.66;100.00;97869.50;18561240;32;19956;-58
2023/04/27 07:46:30;;;;;;;;;;;;;;;12.95;100.00;97855.25;18561815;32;20003;-58
2023/04/27 07:56:32;;;;;;;;;;;;;;;13.15;100.00;97846.97;18560860;32;20016;-58
2023/04/27 08:06:35;;;;;;;;;;;;;;;13.37;100.00;97857.44;18533542;32;19953;-58
2023/04/27 08:16:41;;;;;;;;;;;;;;;13.70;100.00;97854.16;18561019;32;19967;-58
2023/04/27 08:26:44;;;;;;;;;;;;;;;14.38;100.00;97858.63;18560112;31;19953;-58
2023/04/27 08:36:47;;;;;;;;;;;;;;;15.74;100.00;97848.25;18546606;32;20012;-58
2023/04/27 08:46:50;;;;;;;;;;;;;;;16.36;100.00;97844.41;18572268;32;19960;-57
2023/04/27 08:56:52;;;;;;;;;;;;;;;16.68;98.12;97838.00;18571278;32;20008;-58
2023/04/27 09:06:54;;;;;;;;;;;;;;;16.71;96.85;97836.59;18556972;32;19952;-58
2023/04/27 09:16:58;;;;;;;;;;;;;;;17.20;86.76;97831.44;18570275;32;19952;-58
2023/04/27 09:27:02;;;;;;;;;;;;;;;17.87;85.43;97838.78;18569359;31;19980;-58
2023/04/27 09:37:05;;;;;;;;;;;;;;;18.34;71.18;97862.22;18554933;32;19952;-57
2023/04/27 09:47:08;;;;;;;;;;;;;;;18.22;61.61;97847.16;18569370;32;19979;-58
2023/04/27 09:57:10;;;;;;;;;;;;;;;18.71;64.36;97838.16;18567136;32;19948;-58
2023/04/27 10:07:14;;;;;;;;;;;;;;;18.90;56.66;97835.94;18567348;32;20000;-58
2023/04/27 10:17:16;;;;;;;;;;;;;;;19.32;59.60;97823.69;18567148;32;19952;-58
2023/04/27 10:27:21;;;;;;;;;;;;;;;19.57;50.19;97824.78;18565577;31;20329;-58
2023/04/27 10:37:37;;;;;;;;;;;;;;;19.28;49.97;97813.37;18551082;32;20000;-58
2023/04/27 10:47:45;;;;;;;;;;;;;;;19.71;56.67;97808.94;18564891;32;19956;-58
2023/04/27 10:57:50;;;;;;;;;;;;;;;20.49;49.33;97812.53;18564217;32;19979;-58
2023/04/27 11:08:04;;;;;;;;;;;;;;;20.42;47.74;97804.81;18563610;32;19997;-58
2023/04/27 11:18:06;;;;;;;;;;;;;;;20.36;46.61;97795.16;18562971;32;19972;-58
2023/04/27 11:28:21;;;;;;;;;;;;;;;19.64;46.40;97787.50;18561932;31;19944;-58
2023/04/27 11:38:24;;;;;;;;;;;;;;;20.45;49.76;97775.91;18561974;32;20002;-58
2023/04/27 11:48:27;;;;;;;;;;;;;;;20.78;48.01;97777.97;18561580;32;20031;-58
2023/04/27 11:58:32;;;;;;;;;;;;;;;21.65;50.10;97768.13;18546860;32;19956;-58
2023/04/27 12:08:34;;;;;;;;;;;;;;;22.39;49.13;97764.62;18560921;32;19986;-58
2023/04/27 12:18:36;;;;;;;;;;;;;;;22.87;47.23;97771.19;18570037;31;19961;-58
2023/04/27 12:28:39;;;;;;;;;;;;;;;22.94;42.25;97770.59;18573018;32;19956;-58
2023/04/27 12:38:41;;;;;;;;;;;;;;;22.75;39.92;97760.19;18545368;32;19956;-58
2023/04/27 12:48:45;;;;;;;;;;;;;;;22.62;45.36;97768.50;18571911;32;20237;-58
2023/04/27 12:58:47;;;;;;;;;;;;;;;22.91;40.15;97755.56;18571482;32;19972;-58
2023/04/27 13:08:49;;;;;;;;;;;;;;;23.56;44.15;97751.87;18571076;32;20336;-58
2023/04/27 13:18:54;;;;;;;;;;;;;;;24.30;41.56;97745.81;18555885;32;20341;-58
2023/04/27 13:28:57;;;;;;;;;;;;;;;23.77;41.30;97751.59;18568380;32;19952;-58
2023/04/27 13:39:00;;;;;;;;;;;;;;;23.46;39.96;97755.13;18568836;32;19971;-58
2023/04/27 13:49:03;;;;;;;;;;;;;;;22.38;41.58;97735.47;18568227;32;20356;-57
2023/04/27 13:59:05;;;;;;;;;;;;;;;23.52;40.22;97731.66;18567683;32;20009;-58
2023/04/27 14:09:08;;;;;;;;;;;;;;;23.29;40.12;97723.16;18566710;31;19988;-58
2023/04/27 14:19:14;;;;;;;;;;;;;;;24.16;39.52;97720.59;18566684;32;19949;-58
2023/04/27 14:29:17;;;;;;;;;;;;;;;24.64;36.73;97729.63;18565721;32;20272;-58
2023/04/27 14:39:20;;;;;;;;;;;;;;;25.04;38.50;97722.94;18565040;32;19948;-57
2023/04/27 14:49:23;;;;;;;;;;;;;;;25.37;36.75;97715.28;18564734;32;19967;-58
2023/04/27 14:59:25;;;;;;;;;;;;;;;25.57;37.12;97709.69;18549900;32;19990;-57
2023/04/27 15:09:28;;;;;;;;;;;;;;;25.74;33.76;97706.44;18548962;32;20291;-58
2023/04/27 15:19:30;;;;;;;;;;;;;;;25.91;34.63;97694.03;18562989;32;19968;-58
2023/04/27 15:29:32;;;;;;;;;;;;;;;25.76;37.24;97686.69;18562127;32;19960;-58
2023/04/27 15:39:34;;;;;;;;;;;;;;;25.05;35.76;97665.62;18561840;32;19952;-58
2023/04/27 15:49:37;;;;;;;;;;;;;;;25.00;34.82;97646.59;18561495;32;19948;-58
2023/04/27 15:59:57;;;;;;;;;;;;;;;24.65;39.79;97651.06;18561154;32;19960;-58
2023/04/27 16:09:59;;;;;;;;;;;;;;;24.55;40.39;97631.47;18561011;32;19975;-58
2023/04/27 16:20:05;;;;;;;;;;;;;;;23.47;39.38;97619.56;18560216;32;19960;-58
2023/04/27 16:30:08;;;;;;;;;;;;;;;23.04;42.00;97614.87;18546270;31;20352;-58
2023/04/27 16:40:11;;;;;;;;;;;;;;;24.25;42.15;97627.28;18545564;32;19952;-58
2023/04/27 16:50:13;;;;;;;;;;;;;;;24.64;39.62;97635.63;18559585;31;19992;-58
2023/04/27 17:00:16;;;;;;;;;;;;;;;24.28;40.15;97634.84;18549365;32;20349;-58
2023/04/27 17:10:19;;;;;;;;;;;;;;;23.69;38.99;97634.69;18556764;32;20355;-58
2023/04/27 17:20:21;;;;;;;;;;;;;;;22.32;43.85;97638.47;18570244;32;19961;-58
2023/04/27 17:30:24;;;;;;;;;;;;;;;21.03;51.38;97629.66;18554913;31;19972;-58
2023/04/27 17:40:26;;;;;;;;;;;;;;;20.20;58.47;97627.47;18569063;32;20028;-58
2023/04/27 17:50:29;;;;;;;;;;;;;;;19.50;64.03;97618.81;18568280;31;20009;-58
2023/04/27 18:00:32;;;;;;;;;;;;;;;18.83;67.46;97610.13;18568005;32;19952;-58
2023/04/27 18:10:35;;;;;;;;;;;;;;;18.15;75.89;97619.69;18566549;32;19968;-58
2023/04/27 18:20:37;;;;;;;;;;;;;;;17.43;86.35;97616.28;18566414;32;19952;-58
2023/04/27 18:30:40;;;;;;;;;;;;;;;16.74;93.93;97617.53;18565917;32;20320;-58
2023/04/27 18:40:42;;;;;;;;;;;;;;;16.12;100.00;97612.75;18565313;32;20360;-58
2023/04/27 18:50:44;;;;;;;;;;;;;;;15.57;100.00;97617.16;18564258;32;19990;-58
2023/04/27 19:00:47;;;;;;;;;;;;;;;15.15;100.00;97616.34;18563761;32;19990;-58
2023/04/27 19:10:50;;;;;;;;;;;;;;;14.76;100.00;97607.53;18562880;32;20238;-58
2023/04/27 19:20:52;;;;;;;;;;;;;;;14.46;100.00;97603.34;18562324;32;19960;-58
2023/04/27 19:30:55;;;;;;;;;;;;;;;14.14;100.00;97607.66;18562266;31;20017;-57
2023/04/27 19:40:57;;;;;;;;;;;;;;;13.83;100.00;97600.75;18561775;31;19956;-57
2023/04/27 19:50:59;;;;;;;;;;;;;;;13.48;100.00;97615.59;18561604;32;19966;-57
2023/04/27 20:01:02;;;;;;;;;;;;;;;13.17;100.00;97624.88;18547037;32;19956;-57
2023/04/27 20:11:05;;;;;;;;;;;;;;;13.05;100.00;97643.47;18561182;32;19949;-58
2023/04/27 20:21:07;;;;;;;;;;;;;;;13.00;100.00;97635.38;18546621;32;20012;-58
2023/04/27 20:31:09;;;;;;;;;;;;;;;12.92;100.00;97636.78;18559739;31;19990;-57
2023/04/27 20:41:12;;;;;;;;;;;;;;;12.87;100.00;97626.00;18571681;32;20000;-57
2023/04/27 20:51:14;;;;;;;;;;;;;;;12.87;100.00;97615.16;18571898;32;19979;-58
2023/04/27 21:01:16;;;;;;;;;;;;;;;12.86;100.00;97608.91;18571654;32;19980;-58
2023/04/27 21:11:19;;;;;;;;;;;;;;;12.77;100.00;97602.50;18571890;32;19993;-58
2023/04/27 21:21:23;;;;;;;;;;;;;;;12.56;100.00;97601.06;18570306;32;19975;-58
2023/04/27 21:31:25;;;;;;;;;;;;;;;12.32;100.00;97601.75;18569183;31;19960;-57
2023/04/27 21:41:27;;;;;;;;;;;;;;;12.16;100.00;97588.34;18569081;32;19956;-57
2023/04/27 21:51:31;;;;;;;;;;;;;;;12.08;100.00;97578.09;18567769;32;19945;-57
2023/04/27 22:01:33;;;;;;;;;;;;;;;11.95;100.00;97574.12;18567886;32;19968;-58
2023/04/27 22:11:35;;;;;;;;;;;;;;;11.72;100.00;97562.03;18552814;32;19944;-57
2023/04/27 22:21:38;;;;;;;;;;;;;;;11.52;100.00;97557.53;18566823;32;19996;-57
2023/04/27 22:31:40;;;;;;;;;;;;;;;11.45;100.00;97552.44;18565711;32;20029;-57
2023/04/27 22:41:45;;;;;;;;;;;;;;;11.35;100.00;97555.19;18565523;32;19988;-57
2023/04/27 22:51:47;;;;;;;;;;;;;;;11.34;100.00;97564.41;18564619;32;19961;-58
2023/04/27 23:01:49;;;;;;;;;;;;;;;11.22;100.00;97559.28;18564133;32;20281;-58
2023/04/27 23:11:51;;;;;;;;;;;;;;;11.17;100.00;97543.91;18563817;32;19957;-57
2023/04/27 23:21:53;;;;;;;;;;;;;;;11.08;100.00;97548.25;18562972;31;19989;-57
2023/04/27 23:32:04;;;;;;;;;;;;;;;11.14;100.00;97549.88;18547375;31;20329;-58
2023/04/27 23:42:07;;;;;;;;;;;;;;;11.21;100.00;97549.59;18562202;32;19967;-58
2023/04/27 23:52:10;;;;;;;;;;;;;;;11.32;100.00;97543.03;18561619;32;19944;-57
